createdAt,value
2023-01-07T00:02:18.757Z,14.50
2023-01-07T00:04:46.976Z,14.50
2023-01-07T00:07:14.839Z,14.50
2023-01-07T00:09:42.720Z,14.50
2023-01-07T00:12:10.528Z,14.50
2023-01-07T00:14:38.436Z,14.50
2023-01-07T00:17:06.272Z,14.50
2023-01-07T00:19:35.581Z,14.50
2023-01-07T00:22:03.521Z,14.50
2023-01-07T00:24:31.386Z,14.50
2023-01-07T00:26:59.168Z,14.50
2023-01-07T00:29:26.966Z,14.50
2023-01-07T00:31:54.832Z,14.50
2023-01-07T00:34:24.050Z,14.40
2023-01-07T00:37:17.340Z,14.50
2023-01-07T00:39:45.262Z,14.50
2023-01-07T00:42:30.578Z,14.50
2023-01-07T00:44:58.441Z,14.40
2023-01-07T00:47:26.259Z,14.50
2023-01-07T00:49:54.145Z,14.50
2023-01-07T00:52:23.888Z,14.50
2023-01-07T00:54:54.665Z,14.40
2023-01-07T00:57:25.327Z,14.40
2023-01-07T00:59:53.579Z,14.40
2023-01-07T01:02:23.066Z,14.40
2023-01-07T01:04:51.902Z,14.40
2023-01-07T01:07:19.792Z,14.30
2023-01-07T01:09:52.241Z,14.30
2023-01-07T01:12:20.328Z,14.30
2023-01-07T01:14:49.588Z,14.30
2023-01-07T01:17:17.451Z,14.30
2023-01-07T01:19:45.390Z,14.30
2023-01-07T01:22:13.225Z,14.20
2023-01-07T01:24:41.092Z,14.40
2023-01-07T01:27:10.335Z,14.20
2023-01-07T01:29:38.188Z,14.20
2023-01-07T01:32:06.405Z,14.20
2023-01-07T01:34:34.330Z,14.20
2023-01-07T01:37:02.179Z,14.10
2023-01-07T01:39:30.289Z,14.10
2023-01-07T01:41:58.282Z,14.10
2023-01-07T01:44:45.432Z,14.10
2023-01-07T01:47:21.027Z,14.10
2023-01-07T01:50:01.095Z,14.10
2023-01-07T01:52:32.765Z,14.10
2023-01-07T01:55:03.781Z,14.10
2023-01-07T01:57:35.983Z,14.10
2023-01-07T02:00:07.299Z,14.10
2023-01-07T02:02:37.748Z,14.10
2023-01-07T02:05:06.522Z,14.10
2023-01-07T02:07:34.345Z,14.10
2023-01-07T02:10:09.832Z,14.10
2023-01-07T02:12:48.036Z,14.10
2023-01-07T02:15:25.533Z,14.10
2023-01-07T02:18:17.059Z,14.10
2023-01-07T02:21:02.016Z,14.10
2023-01-07T02:24:08.178Z,14.10
2023-01-07T02:27:07.008Z,14.10
2023-01-07T02:30:25.901Z,14.10
2023-01-07T02:33:13.870Z,14.10
2023-01-07T02:35:58.132Z,14.10
2023-01-07T02:38:34.319Z,14.10
2023-01-07T02:41:10.959Z,14.10
2023-01-07T02:43:46.809Z,14.10
2023-01-07T02:46:21.160Z,14.10
2023-01-07T02:48:53.926Z,14.10
2023-01-07T02:51:22.140Z,14.10
2023-01-07T02:53:50.960Z,14.10
2023-01-07T02:56:30.687Z,14.10
2023-01-07T02:59:15.273Z,14.10
2023-01-07T03:02:01.836Z,14.10
2023-01-07T03:04:55.670Z,15.20
2023-01-07T03:07:38.442Z,14.00
2023-01-07T03:10:15.999Z,14.00
2023-01-07T03:12:51.980Z,14.00
2023-01-07T03:15:24.486Z,14.00
2023-01-07T03:17:57.738Z,14.00
2023-01-07T03:20:28.823Z,13.90
2023-01-07T03:22:58.592Z,15.10
2023-01-07T03:25:29.501Z,13.90
2023-01-07T03:27:59.732Z,13.90
2023-01-07T03:30:28.956Z,13.90
2023-01-07T03:33:03.165Z,13.80
2023-01-07T03:35:35.777Z,13.80
2023-01-07T03:38:05.448Z,13.80
2023-01-07T03:40:33.548Z,13.80
2023-01-07T03:43:00.436Z,13.70
2023-01-07T03:45:29.835Z,13.70
2023-01-07T03:47:58.704Z,13.70
2023-01-07T03:50:26.663Z,13.60
2023-01-07T03:52:55.840Z,13.60
2023-01-07T03:55:23.856Z,13.60
2023-01-07T03:57:54.968Z,13.60
2023-01-07T04:00:25.654Z,13.60
2023-01-07T04:02:53.509Z,13.50
2023-01-07T04:05:21.901Z,13.50
2023-01-07T04:07:50.287Z,13.50
2023-01-07T04:10:20.869Z,13.50
2023-01-07T04:12:49.431Z,13.50
2023-01-07T04:15:17.249Z,13.50
2023-01-07T04:17:45.179Z,13.40
2023-01-07T04:20:13.105Z,13.40
2023-01-07T04:22:40.901Z,13.40
2023-01-07T04:25:09.340Z,13.40
2023-01-07T04:27:38.577Z,13.40
2023-01-07T04:30:08.027Z,13.40
2023-01-07T04:32:35.983Z,13.40
2023-01-07T04:35:04.412Z,13.40
2023-01-07T04:37:32.474Z,13.40
2023-01-07T04:40:00.496Z,13.40
2023-01-07T04:42:28.354Z,13.30
2023-01-07T04:44:57.626Z,13.30
2023-01-07T04:47:25.586Z,13.30
2023-01-07T04:49:53.600Z,13.30
2023-01-07T04:52:21.839Z,13.30
2023-01-07T04:54:50.128Z,13.30
2023-01-07T04:57:17.987Z,13.30
2023-01-07T04:59:45.887Z,13.30
2023-01-07T05:02:15.214Z,13.30
2023-01-07T05:04:43.228Z,13.30
2023-01-07T05:07:11.371Z,13.30
2023-01-07T05:09:39.208Z,13.30
2023-01-07T05:12:07.221Z,13.30
2023-01-07T05:14:35.034Z,13.30
2023-01-07T05:17:03.307Z,13.50
2023-01-07T05:19:32.629Z,13.40
2023-01-07T05:22:01.058Z,13.30
2023-01-07T05:24:28.984Z,13.30
2023-01-07T05:26:57.250Z,13.40
2023-01-07T05:29:25.085Z,13.40
2023-01-07T05:31:53.015Z,13.40
2023-01-07T05:34:21.981Z,13.40
2023-01-07T05:36:51.657Z,13.40
2023-01-07T05:39:19.608Z,13.40
2023-01-07T05:41:47.983Z,13.40
2023-01-07T05:44:16.032Z,13.40
2023-01-07T05:46:43.905Z,13.40
2023-01-07T05:49:11.821Z,13.40
2023-01-07T05:51:39.677Z,13.40
2023-01-07T05:54:08.851Z,13.40
2023-01-07T05:56:37.107Z,13.40
2023-01-07T05:59:04.989Z,13.40
2023-01-07T06:01:32.942Z,13.50
2023-01-07T06:04:00.961Z,13.50
2023-01-07T06:06:28.838Z,13.50
2023-01-07T06:08:56.667Z,13.50
2023-01-07T06:11:25.835Z,13.50
2023-01-07T06:13:53.801Z,13.50
2023-01-07T06:16:21.877Z,13.50
2023-01-07T06:18:50.105Z,13.50
2023-01-07T06:21:18.376Z,13.60
2023-01-07T06:23:46.699Z,13.50
2023-01-07T06:26:14.616Z,13.50
2023-01-07T06:28:43.911Z,13.50
2023-01-07T06:31:12.661Z,13.50
2023-01-07T06:33:40.802Z,15.00
2023-01-07T06:36:09.326Z,13.60
2023-01-07T06:38:37.481Z,13.60
2023-01-07T06:41:05.631Z,13.60
2023-01-07T06:43:33.459Z,13.50
2023-01-07T06:46:02.758Z,13.60
2023-01-07T06:48:30.560Z,13.60
2023-01-07T06:50:58.396Z,13.60
2023-01-07T06:53:26.309Z,13.60
2023-01-07T06:55:54.122Z,13.60
2023-01-07T06:58:23.709Z,13.60
2023-01-07T07:00:54.629Z,13.50
2023-01-07T07:03:23.825Z,13.60
2023-01-07T07:05:52.779Z,13.60
2023-01-07T07:08:20.958Z,13.50
2023-01-07T07:10:49.551Z,13.50
2023-01-07T07:13:17.676Z,13.50
2023-01-07T07:15:45.525Z,13.50
2023-01-07T07:18:13.325Z,13.50
2023-01-07T07:20:42.526Z,13.40
2023-01-07T07:23:10.408Z,13.40
2023-01-07T07:25:38.411Z,13.40
2023-01-07T07:28:06.412Z,13.40
2023-01-07T07:30:46.672Z,13.40
2023-01-07T07:33:18.726Z,13.30
2023-01-07T07:35:48.080Z,13.30
2023-01-07T07:38:17.669Z,13.30
2023-01-07T07:40:45.705Z,13.30
2023-01-07T07:43:13.917Z,13.20
2023-01-07T07:45:42.076Z,13.20
2023-01-07T07:48:10.830Z,13.20
2023-01-07T07:50:38.708Z,13.20
2023-01-07T07:53:10.186Z,13.20
2023-01-07T07:55:38.677Z,13.20
2023-01-07T07:58:07.299Z,13.10
2023-01-07T08:00:35.185Z,13.10
2023-01-07T08:03:03.277Z,13.10
2023-01-07T08:05:31.651Z,12.50
2023-01-07T08:07:59.573Z,13.10
2023-01-07T08:10:30.026Z,13.10
2023-01-07T08:12:57.911Z,13.10
2023-01-07T08:15:25.738Z,13.20
2023-01-07T08:18:00.592Z,13.20
2023-01-07T08:20:29.212Z,13.20
2023-01-07T08:23:00.369Z,13.20
2023-01-07T08:25:30.553Z,13.20
2023-01-07T08:27:59.337Z,13.20
2023-01-07T08:30:28.309Z,13.30
2023-01-07T08:32:56.411Z,13.20
2023-01-07T08:35:24.508Z,13.30
2023-01-07T08:37:52.586Z,13.30
2023-01-07T08:40:21.342Z,13.30
2023-01-07T08:42:52.617Z,13.40
2023-01-07T08:45:21.417Z,13.70
2023-01-07T08:47:49.676Z,13.40
2023-01-07T08:50:17.603Z,13.40
2023-01-07T08:52:49.083Z,13.40
2023-01-07T08:55:17.124Z,13.40
2023-01-07T08:57:44.954Z,13.40
2023-01-07T09:00:16.022Z,13.40
2023-01-07T09:02:45.679Z,13.40
2023-01-07T09:05:14.018Z,13.40
2023-01-07T09:07:41.916Z,13.40
2023-01-07T09:10:10.757Z,13.50
2023-01-07T09:12:38.662Z,13.50
2023-01-07T09:15:07.634Z,13.50
2023-01-07T09:17:37.388Z,13.50
2023-01-07T09:20:07.327Z,13.50
2023-01-07T09:22:36.317Z,13.50
2023-01-07T09:25:04.641Z,13.50
2023-01-07T09:27:32.496Z,13.60
2023-01-07T09:30:00.527Z,13.60
2023-01-07T09:32:29.134Z,13.60
2023-01-07T09:34:58.424Z,13.60
2023-01-07T09:37:29.078Z,13.70
2023-01-07T09:39:56.941Z,13.70
2023-01-07T09:42:33.751Z,13.70
2023-01-07T09:45:11.770Z,13.70
2023-01-07T09:47:44.980Z,13.70
2023-01-07T09:50:24.915Z,13.70
2023-01-07T09:52:55.793Z,13.70
2023-01-07T09:55:28.398Z,13.80
2023-01-07T09:57:56.629Z,13.80
2023-01-07T10:00:25.885Z,13.80
2023-01-07T10:03:12.614Z,13.80
2023-01-07T10:05:55.451Z,13.80
2023-01-07T10:08:34.694Z,13.90
2023-01-07T10:11:12.895Z,13.80
2023-01-07T10:13:54.405Z,13.90
2023-01-07T10:16:29.366Z,13.90
2023-01-07T10:19:06.409Z,13.90
2023-01-07T10:21:41.027Z,14.00
2023-01-07T10:24:16.675Z,13.90
2023-01-07T10:26:49.492Z,13.90
2023-01-07T10:29:23.172Z,14.00
2023-01-07T10:31:53.401Z,14.00
2023-01-07T10:34:25.842Z,14.00
2023-01-07T10:37:02.648Z,14.00
2023-01-07T10:39:42.502Z,14.00
2023-01-07T10:42:15.737Z,14.00
2023-01-07T10:45:21.296Z,14.10
2023-01-07T10:48:08.213Z,14.10
2023-01-07T10:50:57.269Z,14.10
2023-01-07T10:53:36.760Z,14.10
2023-01-07T10:56:18.222Z,14.20
2023-01-07T10:58:48.174Z,14.20
2023-01-07T11:01:25.378Z,14.20
2023-01-07T11:03:55.494Z,14.20
2023-01-07T11:06:32.779Z,14.20
2023-01-07T11:09:04.503Z,14.20
2023-01-07T11:11:34.358Z,14.20
2023-01-07T11:14:07.621Z,14.20
2023-01-07T11:16:41.780Z,14.20
2023-01-07T11:19:12.267Z,14.20
2023-01-07T11:21:44.766Z,14.20
2023-01-07T11:24:33.788Z,14.20
2023-01-07T11:27:05.114Z,14.30
2023-01-07T11:29:38.406Z,14.30
2023-01-07T11:32:07.049Z,14.30
2023-01-07T11:34:38.022Z,14.40
2023-01-07T11:37:06.550Z,14.30
2023-01-07T11:39:37.086Z,14.40
2023-01-07T11:42:34.842Z,14.40
2023-01-07T11:45:13.629Z,14.40
2023-01-07T11:47:48.269Z,15.20
2023-01-07T11:50:24.562Z,14.40
2023-01-07T11:53:01.083Z,14.50
2023-01-07T11:55:31.004Z,14.50
2023-01-07T11:58:29.340Z,14.50
2023-01-07T12:00:48.066Z,14.50
2023-01-07T12:03:16.086Z,14.50
2023-01-07T12:05:45.975Z,14.50
2023-01-07T12:08:23.554Z,14.60
2023-01-07T12:10:57.662Z,14.60
2023-01-07T12:13:28.272Z,14.60
2023-01-07T12:15:59.310Z,14.70
2023-01-07T12:19:19.237Z,14.60
2023-01-07T13:10:16.975Z,14.60
2023-01-07T13:12:50.133Z,14.70
2023-01-07T13:15:23.048Z,14.70
2023-01-07T13:17:53.660Z,14.70
2023-01-07T13:20:36.305Z,14.70
2023-01-07T13:23:06.537Z,14.70
2023-01-07T13:25:47.241Z,14.70
2023-01-07T13:28:43.961Z,14.70
2023-01-07T13:31:23.172Z,14.80
2023-01-07T13:33:58.748Z,14.80
2023-01-07T13:36:35.630Z,14.80
2023-01-07T13:39:23.942Z,14.80
2023-01-07T13:42:04.700Z,14.70
2023-01-07T13:44:53.739Z,14.70
2023-01-07T13:47:25.928Z,14.70
2023-01-07T13:49:58.757Z,14.80
2023-01-07T13:52:30.150Z,14.70
2023-01-07T13:55:00.909Z,14.70
2023-01-07T13:57:43.535Z,14.70
2023-01-07T14:00:48.128Z,15.20
2023-01-07T14:03:44.183Z,14.70
2023-01-07T14:06:47.867Z,14.70
2023-01-07T14:09:32.191Z,14.70
2023-01-07T14:12:30.826Z,14.70
2023-01-07T14:15:24.328Z,14.70
2023-01-07T14:18:05.424Z,14.70
2023-01-07T14:20:41.181Z,14.70
2023-01-07T14:23:17.050Z,14.70
2023-01-07T14:25:58.432Z,14.70
2023-01-07T14:28:46.791Z,14.70
2023-01-07T14:31:24.536Z,14.60
2023-01-07T14:33:58.109Z,14.60
2023-01-07T14:36:46.829Z,14.60
2023-01-07T14:39:36.818Z,14.60
2023-01-07T14:42:27.669Z,14.60
2023-01-07T14:44:55.545Z,14.60
2023-01-07T14:47:54.862Z,14.50
2023-01-07T14:50:37.850Z,14.50
2023-01-07T14:53:48.106Z,14.50
2023-01-07T14:56:32.553Z,15.90
2023-01-07T14:59:25.987Z,14.40
2023-01-07T15:02:18.948Z,14.40
2023-01-07T15:05:16.351Z,14.40
2023-01-07T15:07:49.564Z,14.40
2023-01-07T15:10:39.689Z,14.40
2023-01-07T15:13:32.364Z,14.40
2023-01-07T15:16:02.307Z,14.40
2023-01-07T15:18:31.747Z,14.40
2023-01-07T15:21:11.639Z,14.40
2023-01-07T15:23:50.588Z,14.40
2023-01-07T15:26:29.486Z,14.40
2023-01-07T15:29:06.157Z,14.30
2023-01-07T15:31:42.022Z,14.30
2023-01-07T15:34:12.906Z,14.40
2023-01-07T15:36:43.360Z,14.30
2023-01-07T15:39:21.581Z,14.40
2023-01-07T15:41:53.283Z,14.30
2023-01-07T15:44:29.203Z,14.30
2023-01-07T15:46:57.716Z,14.30
2023-01-07T15:49:26.699Z,14.30
2023-01-07T15:51:56.724Z,14.30
2023-01-07T15:54:34.252Z,14.30
2023-01-07T15:57:08.293Z,14.30
2023-01-07T15:59:42.836Z,14.30
2023-01-07T16:02:23.217Z,14.20
2023-01-07T16:04:53.842Z,14.30
2023-01-07T16:07:28.548Z,14.20
2023-01-07T16:09:56.602Z,14.20
2023-01-07T16:12:32.989Z,14.30
2023-01-07T16:15:04.851Z,14.20
2023-01-07T16:17:33.069Z,14.20
2023-01-07T16:20:11.554Z,14.20
2023-01-07T16:22:41.977Z,14.20
2023-01-07T16:25:16.670Z,14.20
2023-01-07T16:27:44.917Z,14.20
2023-01-07T16:30:15.861Z,14.20
2023-01-07T16:32:45.346Z,14.20
2023-01-07T16:35:20.719Z,14.20
2023-01-07T16:37:53.502Z,14.20
2023-01-07T16:40:26.299Z,14.20
2023-01-07T16:42:54.208Z,14.10
2023-01-07T16:45:28.183Z,14.20
2023-01-07T16:48:20.046Z,14.10
2023-01-07T16:50:50.893Z,14.10
2023-01-07T16:53:29.208Z,14.10
2023-01-07T16:56:13.691Z,14.00
2023-01-07T16:58:43.661Z,14.00
2023-01-07T17:01:19.749Z,14.00
2023-01-07T17:03:52.754Z,13.90
2023-01-07T17:06:25.451Z,14.00
2023-01-07T17:08:56.389Z,13.90
2023-01-07T17:11:29.518Z,13.90
2023-01-07T17:13:57.661Z,13.90
2023-01-07T17:16:30.300Z,13.90
2023-01-07T17:18:59.872Z,13.80
2023-01-07T17:21:43.140Z,13.80
2023-01-07T17:24:39.616Z,13.70
2023-01-07T17:27:19.101Z,13.70
2023-01-07T17:29:49.538Z,13.60
2023-01-07T17:32:19.131Z,13.60
2023-01-07T17:34:47.130Z,13.60
2023-01-07T17:37:16.734Z,13.60
2023-01-07T17:39:45.254Z,13.50
2023-01-07T17:42:43.628Z,13.50
2023-01-07T17:45:16.936Z,13.60
2023-01-07T17:47:48.486Z,13.40
2023-01-07T17:50:18.770Z,13.40
2023-01-07T17:52:51.076Z,13.40
2023-01-07T17:55:27.667Z,13.40
2023-01-07T17:57:55.511Z,13.30
2023-01-07T18:00:27.053Z,13.30
2023-01-07T18:02:57.917Z,13.30
2023-01-07T18:05:27.219Z,13.30
2023-01-07T18:07:55.306Z,13.30
2023-01-07T18:10:29.354Z,13.30
2023-01-07T18:12:56.235Z,13.30
2023-01-07T18:15:26.308Z,13.30
2023-01-07T18:17:55.841Z,13.30
2023-01-07T18:20:24.200Z,13.30
2023-01-07T18:22:52.100Z,13.30
2023-01-07T18:25:22.307Z,13.30
2023-01-07T18:27:53.195Z,13.20
2023-01-07T18:30:23.091Z,13.20
2023-01-07T18:32:53.648Z,13.20
2023-01-07T18:35:23.758Z,14.60
2023-01-07T18:37:52.256Z,13.20
2023-01-07T18:40:22.700Z,13.20
2023-01-07T18:42:50.704Z,13.20
2023-01-07T18:45:18.687Z,13.20
2023-01-07T18:47:46.889Z,13.10
2023-01-07T18:50:15.557Z,13.20
2023-01-07T18:52:45.078Z,13.20
2023-01-07T18:55:13.525Z,13.10
2023-01-07T18:57:41.456Z,13.10
2023-01-07T19:00:10.584Z,13.10
2023-01-07T19:02:38.449Z,13.10
2023-01-07T19:05:07.343Z,13.10
2023-01-07T19:07:36.027Z,13.10
2023-01-07T19:10:05.945Z,13.00
2023-01-07T19:12:33.829Z,13.00
2023-01-07T19:15:01.800Z,13.00
2023-01-07T19:17:29.658Z,13.00
2023-01-07T19:19:57.511Z,12.90
2023-01-07T19:22:25.366Z,13.00
2023-01-07T19:24:53.828Z,12.90
2023-01-07T19:27:25.710Z,13.00
2023-01-07T19:29:53.634Z,13.00
2023-01-07T19:32:22.403Z,13.00
2023-01-07T19:34:52.303Z,13.00
2023-01-07T19:37:22.803Z,13.00
2023-01-07T19:39:50.844Z,13.00
2023-01-07T19:42:18.675Z,13.00
2023-01-07T19:44:52.883Z,13.10
2023-01-07T19:47:21.360Z,13.10
2023-01-07T19:49:50.818Z,13.10
2023-01-07T19:52:18.713Z,13.10
2023-01-07T19:54:46.930Z,13.10
2023-01-07T19:57:14.820Z,13.10
2023-01-07T19:59:42.691Z,13.20
2023-01-07T20:02:30.044Z,13.20
2023-01-07T20:04:58.131Z,13.20
2023-01-07T20:07:26.547Z,13.20
2023-01-07T20:09:54.422Z,13.20
2023-01-07T20:12:23.534Z,13.20
2023-01-07T20:14:52.323Z,13.20
2023-01-07T20:17:22.231Z,13.20
2023-01-07T20:19:50.665Z,13.20
2023-01-07T20:22:18.550Z,13.20
2023-01-07T20:24:46.996Z,13.30
2023-01-07T20:27:15.081Z,13.30
2023-01-07T20:29:42.969Z,13.30
2023-01-07T20:32:10.832Z,13.30
2023-01-07T20:34:40.108Z,13.30
2023-01-07T20:37:07.917Z,13.30
2023-01-07T20:39:35.750Z,13.30
2023-01-07T20:42:05.379Z,13.30
2023-01-07T20:44:34.520Z,13.30
2023-01-07T20:47:04.706Z,13.30
2023-01-07T20:49:35.726Z,13.30
2023-01-07T20:52:05.043Z,13.30
2023-01-07T20:54:33.108Z,13.30
2023-01-07T20:57:01.367Z,13.40
2023-01-07T20:59:29.181Z,13.40
2023-01-07T21:01:57.171Z,13.40
2023-01-07T21:04:25.432Z,13.30
2023-01-07T21:06:53.487Z,13.30
2023-01-07T21:09:23.704Z,13.40
2023-01-07T21:11:52.221Z,13.40
2023-01-07T21:14:20.427Z,13.40
2023-01-07T21:16:49.740Z,13.40
2023-01-07T21:19:28.354Z,13.40
2023-01-07T21:21:57.705Z,13.30
2023-01-07T21:24:30.956Z,13.30
2023-01-07T21:27:00.872Z,13.40
2023-01-07T21:29:28.710Z,13.30
2023-01-07T21:31:57.387Z,13.40
2023-01-07T21:34:25.456Z,13.40
2023-01-07T21:36:54.111Z,13.40
2023-01-07T21:39:22.884Z,13.40
2023-01-07T21:41:54.652Z,13.40
2023-01-07T21:44:25.502Z,13.40
2023-01-07T21:46:54.174Z,13.40
2023-01-07T21:49:22.936Z,13.40
2023-01-07T21:51:52.236Z,13.40
2023-01-07T21:54:20.320Z,13.50
2023-01-07T21:56:51.907Z,13.50
2023-01-07T21:59:21.529Z,13.50
2023-01-07T22:01:51.982Z,13.50
2023-01-07T22:04:20.095Z,13.50
2023-01-07T22:06:51.084Z,13.50
2023-01-07T22:09:19.185Z,13.50
2023-01-07T22:11:47.748Z,13.50
2023-01-07T22:14:19.289Z,13.60
2023-01-07T22:16:49.260Z,13.60
2023-01-07T22:19:17.419Z,13.60
2023-01-07T22:21:45.393Z,13.60
2023-01-07T22:24:14.345Z,13.50
2023-01-07T22:26:42.916Z,13.60
2023-01-07T22:29:11.419Z,13.50
2023-01-07T22:31:40.624Z,13.60
2023-01-07T22:34:09.745Z,13.60
2023-01-07T22:36:42.727Z,13.60
2023-01-07T22:39:15.045Z,13.60
2023-01-07T22:41:43.396Z,13.60
2023-01-07T22:44:15.597Z,13.60
2023-01-07T22:46:48.138Z,13.60
2023-01-07T22:49:16.597Z,13.60
2023-01-07T22:51:47.900Z,13.60
2023-01-07T22:54:17.097Z,13.60
2023-01-07T22:56:45.758Z,13.60
2023-01-07T22:59:13.711Z,13.60
2023-01-07T23:01:41.542Z,13.70
2023-01-07T23:04:10.798Z,13.60
2023-01-07T23:06:39.052Z,13.60
2023-01-07T23:09:07.074Z,13.70
2023-01-07T23:11:54.804Z,13.70
2023-01-07T23:14:24.353Z,13.70
2023-01-07T23:16:53.390Z,13.70
2023-01-07T23:19:23.946Z,13.70
2023-01-07T23:21:54.257Z,13.70
2023-01-07T23:24:24.758Z,13.70
2023-01-07T23:26:54.245Z,13.70
2023-01-07T23:29:23.795Z,13.70
2023-01-07T23:31:52.407Z,13.70
2023-01-07T23:34:22.456Z,13.70
2023-01-07T23:36:51.186Z,13.70
2023-01-07T23:39:22.061Z,13.70
2023-01-07T23:41:52.377Z,13.70
2023-01-07T23:44:22.605Z,13.70
2023-01-07T23:46:50.835Z,13.70
2023-01-07T23:49:18.868Z,13.70
2023-01-07T23:51:48.278Z,13.70
2023-01-07T23:54:16.244Z,13.70
2023-01-07T23:56:44.161Z,13.70
2023-01-07T23:59:12.308Z,13.70
